sensor_id;sensor_type;location;lat;lon;timestamp;P1;durP1;ratioP1;P2;durP2;ratioP2
9838;SDS011;4958;48.150;11.506;2024-01-16T00:01:24;2.87;;;2.40;;
9838;SDS011;4958;48.150;11.506;2024-01-16T00:03:51;3.30;;;2.10;;
9838;SDS011;4958;48.150;11.506;2024-01-16T00:09:16;3.97;;;1.90;;
9838;SDS011;4958;48.150;11.506;2024-01-16T00:11:44;2.90;;;2.27;;
9838;SDS011;4958;48.150;11.506;2024-01-16T00:14:35;3.07;;;2.10;;
9838;SDS011;4958;48.150;11.506;2024-01-16T00:17:15;3.87;;;2.40;;
9838;SDS011;4958;48.150;11.506;2024-01-16T00:19:57;3.60;;;2.33;;
9838;SDS011;4958;48.150;11.506;2024-01-16T00:22:47;2.90;;;2.40;;
9838;SDS011;4958;48.150;11.506;2024-01-16T00:28:31;4.90;;;2.10;;
9838;SDS011;4958;48.150;11.506;2024-01-16T00:31:18;2.60;;;2.10;;
9838;SDS011;4958;48.150;11.506;2024-01-16T00:33:45;2.43;;;2.10;;
9838;SDS011;4958;48.150;11.506;2024-01-16T00:36:12;2.43;;;2.10;;
9838;SDS011;4958;48.150;11.506;2024-01-16T00:41:51;2.17;;;1.97;;
9838;SDS011;4958;48.150;11.506;2024-01-16T00:47:16;3.33;;;1.90;;
9838;SDS011;4958;48.150;11.506;2024-01-16T00:50:06;2.27;;;1.90;;
9838;SDS011;4958;48.150;11.506;2024-01-16T00:52:53;3.30;;;2.03;;
9838;SDS011;4958;48.150;11.506;2024-01-16T00:55:35;2.97;;;2.00;;
9838;SDS011;4958;48.150;11.506;2024-01-16T00:58:11;5.20;;;2.43;;
9838;SDS011;4958;48.150;11.506;2024-01-16T01:00:40;2.30;;;1.90;;
9838;SDS011;4958;48.150;11.506;2024-01-16T01:03:06;2.43;;;1.70;;
9838;SDS011;4958;48.150;11.506;2024-01-16T01:05:36;2.30;;;1.87;;
9838;SDS011;4958;48.150;11.506;2024-01-16T01:08:15;2.33;;;1.73;;
9838;SDS011;4958;48.150;11.506;2024-01-16T01:10:43;3.07;;;1.90;;
9838;SDS011;4958;48.150;11.506;2024-01-16T01:13:15;2.17;;;1.87;;
9838;SDS011;4958;48.150;11.506;2024-01-16T01:16:00;2.73;;;2.13;;
9838;SDS011;4958;48.150;11.506;2024-01-16T01:18:30;1.93;;;1.73;;
9838;SDS011;4958;48.150;11.506;2024-01-16T01:21:08;2.80;;;1.97;;
9838;SDS011;4958;48.150;11.506;2024-01-16T01:23:48;4.20;;;2.10;;
9838;SDS011;4958;48.150;11.506;2024-01-16T01:29:25;2.77;;;2.03;;
9838;SDS011;4958;48.150;11.506;2024-01-16T01:32:10;2.50;;;1.87;;
9838;SDS011;4958;48.150;11.506;2024-01-16T01:34:36;3.60;;;1.83;;
9838;SDS011;4958;48.150;11.506;2024-01-16T01:37:03;3.67;;;2.20;;
9838;SDS011;4958;48.150;11.506;2024-01-16T01:39:33;2.43;;;1.93;;
9838;SDS011;4958;48.150;11.506;2024-01-16T01:42:01;1.90;;;1.70;;
9838;SDS011;4958;48.150;11.506;2024-01-16T01:47:35;2.70;;;2.00;;
9838;SDS011;4958;48.150;11.506;2024-01-16T01:50:24;2.07;;;1.80;;
9838;SDS011;4958;48.150;11.506;2024-01-16T01:52:55;2.73;;;2.13;;
9838;SDS011;4958;48.150;11.506;2024-01-16T01:55:36;2.67;;;2.27;;
9838;SDS011;4958;48.150;11.506;2024-01-16T01:58:03;3.03;;;2.13;;
9838;SDS011;4958;48.150;11.506;2024-01-16T02:00:31;3.20;;;1.83;;
9838;SDS011;4958;48.150;11.506;2024-01-16T02:02:58;2.63;;;1.90;;
9838;SDS011;4958;48.150;11.506;2024-01-16T02:05:32;2.43;;;2.03;;
9838;SDS011;4958;48.150;11.506;2024-01-16T02:08:20;2.60;;;2.10;;
9838;SDS011;4958;48.150;11.506;2024-01-16T02:10:48;3.57;;;2.03;;
9838;SDS011;4958;48.150;11.506;2024-01-16T02:16:51;2.90;;;1.90;;
9838;SDS011;4958;48.150;11.506;2024-01-16T02:19:28;3.20;;;2.07;;
9838;SDS011;4958;48.150;11.506;2024-01-16T02:22:00;4.37;;;1.93;;
9838;SDS011;4958;48.150;11.506;2024-01-16T02:27:46;3.23;;;2.07;;
9838;SDS011;4958;48.150;11.506;2024-01-16T02:30:22;2.33;;;1.70;;
9838;SDS011;4958;48.150;11.506;2024-01-16T02:33:04;2.10;;;1.87;;
9838;SDS011;4958;48.150;11.506;2024-01-16T02:35:31;2.53;;;1.83;;
9838;SDS011;4958;48.150;11.506;2024-01-16T02:38:08;2.27;;;1.80;;
9838;SDS011;4958;48.150;11.506;2024-01-16T02:43:39;2.87;;;2.30;;
9838;SDS011;4958;48.150;11.506;2024-01-16T02:46:28;2.73;;;2.07;;
9838;SDS011;4958;48.150;11.506;2024-01-16T02:48:59;2.60;;;1.73;;
9838;SDS011;4958;48.150;11.506;2024-01-16T02:51:41;1.90;;;1.67;;
9838;SDS011;4958;48.150;11.506;2024-01-16T02:54:19;2.17;;;1.80;;
9838;SDS011;4958;48.150;11.506;2024-01-16T02:56:47;3.03;;;1.90;;
9838;SDS011;4958;48.150;11.506;2024-01-16T02:59:18;2.87;;;1.90;;
9838;SDS011;4958;48.150;11.506;2024-01-16T03:01:51;4.03;;;2.10;;
9838;SDS011;4958;48.150;11.506;2024-01-16T03:04:33;2.40;;;1.90;;
9838;SDS011;4958;48.150;11.506;2024-01-16T03:07:02;2.87;;;2.03;;
9838;SDS011;4958;48.150;11.506;2024-01-16T03:09:40;2.47;;;2.00;;
9838;SDS011;4958;48.150;11.506;2024-01-16T03:12:12;2.13;;;1.90;;
9838;SDS011;4958;48.150;11.506;2024-01-16T03:14:53;3.43;;;1.87;;
9838;SDS011;4958;48.150;11.506;2024-01-16T03:17:19;2.63;;;1.93;;
9838;SDS011;4958;48.150;11.506;2024-01-16T03:19:49;2.80;;;1.80;;
9838;SDS011;4958;48.150;11.506;2024-01-16T03:22:16;2.03;;;1.90;;
9838;SDS011;4958;48.150;11.506;2024-01-16T03:24:45;2.60;;;1.93;;
9838;SDS011;4958;48.150;11.506;2024-01-16T03:27:15;2.50;;;1.83;;
9838;SDS011;4958;48.150;11.506;2024-01-16T03:29:58;2.33;;;1.90;;
9838;SDS011;4958;48.150;11.506;2024-01-16T03:32:33;2.50;;;1.87;;
9838;SDS011;4958;48.150;11.506;2024-01-16T03:35:00;3.53;;;2.00;;
9838;SDS011;4958;48.150;11.506;2024-01-16T03:37:34;2.83;;;2.00;;
9838;SDS011;4958;48.150;11.506;2024-01-16T03:40:22;2.60;;;1.80;;
9838;SDS011;4958;48.150;11.506;2024-01-16T03:43:07;2.80;;;2.10;;
9838;SDS011;4958;48.150;11.506;2024-01-16T03:45:44;2.20;;;1.80;;
9838;SDS011;4958;48.150;11.506;2024-01-16T03:48:10;2.60;;;1.90;;
9838;SDS011;4958;48.150;11.506;2024-01-16T03:50:37;2.27;;;2.07;;
9838;SDS011;4958;48.150;11.506;2024-01-16T03:53:04;2.93;;;2.10;;
9838;SDS011;4958;48.150;11.506;2024-01-16T03:58:28;3.67;;;2.47;;
9838;SDS011;4958;48.150;11.506;2024-01-16T04:00:57;2.40;;;1.90;;
9838;SDS011;4958;48.150;11.506;2024-01-16T04:03:31;2.03;;;1.70;;
9838;SDS011;4958;48.150;11.506;2024-01-16T04:06:21;2.77;;;1.93;;
9838;SDS011;4958;48.150;11.506;2024-01-16T04:08:53;3.07;;;2.13;;
9838;SDS011;4958;48.150;11.506;2024-01-16T04:11:26;2.60;;;2.10;;
9838;SDS011;4958;48.150;11.506;2024-01-16T04:14:13;2.10;;;1.90;;
9838;SDS011;4958;48.150;11.506;2024-01-16T04:16:42;3.57;;;2.20;;
9838;SDS011;4958;48.150;11.506;2024-01-16T04:19:09;3.60;;;2.10;;
9838;SDS011;4958;48.150;11.506;2024-01-16T04:21:51;3.47;;;2.20;;
9838;SDS011;4958;48.150;11.506;2024-01-16T04:24:20;2.03;;;1.83;;
9838;SDS011;4958;48.150;11.506;2024-01-16T04:27:02;2.63;;;2.10;;
9838;SDS011;4958;48.150;11.506;2024-01-16T04:29:31;3.10;;;2.33;;
9838;SDS011;4958;48.150;11.506;2024-01-16T04:32:00;4.47;;;2.00;;
9838;SDS011;4958;48.150;11.506;2024-01-16T04:34:50;2.13;;;1.80;;
9838;SDS011;4958;48.150;11.506;2024-01-16T04:37:44;3.40;;;1.90;;
9838;SDS011;4958;48.150;11.506;2024-01-16T04:40:18;4.53;;;2.17;;
9838;SDS011;4958;48.150;11.506;2024-01-16T04:42:47;2.00;;;1.80;;
9838;SDS011;4958;48.150;11.506;2024-01-16T04:45:33;3.80;;;2.17;;
9838;SDS011;4958;48.150;11.506;2024-01-16T04:48:09;2.47;;;1.73;;
9838;SDS011;4958;48.150;11.506;2024-01-16T04:50:37;2.73;;;2.17;;
9838;SDS011;4958;48.150;11.506;2024-01-16T04:53:04;3.40;;;2.10;;
9838;SDS011;4958;48.150;11.506;2024-01-16T04:55:39;4.10;;;2.30;;
9838;SDS011;4958;48.150;11.506;2024-01-16T04:58:06;1.83;;;1.73;;
9838;SDS011;4958;48.150;11.506;2024-01-16T05:00:51;3.07;;;2.13;;
9838;SDS011;4958;48.150;11.506;2024-01-16T05:03:46;4.40;;;2.40;;
9838;SDS011;4958;48.150;11.506;2024-01-16T05:06:13;3.23;;;2.53;;
9838;SDS011;4958;48.150;11.506;2024-01-16T05:08:42;3.03;;;2.20;;
9838;SDS011;4958;48.150;11.506;2024-01-16T05:11:35;4.40;;;2.30;;
9838;SDS011;4958;48.150;11.506;2024-01-16T05:14:13;2.33;;;2.13;;
9838;SDS011;4958;48.150;11.506;2024-01-16T05:17:08;3.50;;;2.20;;
9838;SDS011;4958;48.150;11.506;2024-01-16T05:19:45;2.60;;;2.00;;
9838;SDS011;4958;48.150;11.506;2024-01-16T05:22:22;4.63;;;2.20;;
9838;SDS011;4958;48.150;11.506;2024-01-16T05:24:59;4.43;;;2.07;;
9838;SDS011;4958;48.150;11.506;2024-01-16T05:28:10;4.13;;;2.30;;
9838;SDS011;4958;48.150;11.506;2024-01-16T05:30:52;4.13;;;2.10;;
9838;SDS011;4958;48.150;11.506;2024-01-16T05:36:26;4.50;;;2.20;;
9838;SDS011;4958;48.150;11.506;2024-01-16T05:38:54;2.97;;;2.17;;
9838;SDS011;4958;48.150;11.506;2024-01-16T05:44:38;2.87;;;2.40;;
9838;SDS011;4958;48.150;11.506;2024-01-16T05:47:19;3.00;;;2.43;;
9838;SDS011;4958;48.150;11.506;2024-01-16T05:49:45;6.67;;;2.30;;
9838;SDS011;4958;48.150;11.506;2024-01-16T05:52:23;3.80;;;2.50;;
9838;SDS011;4958;48.150;11.506;2024-01-16T05:54:58;3.30;;;2.10;;
9838;SDS011;4958;48.150;11.506;2024-01-16T05:57:39;5.00;;;2.30;;
9838;SDS011;4958;48.150;11.506;2024-01-16T06:00:09;2.20;;;2.00;;
9838;SDS011;4958;48.150;11.506;2024-01-16T06:02:43;3.13;;;2.37;;
9838;SDS011;4958;48.150;11.506;2024-01-16T06:05:17;4.30;;;2.27;;
9838;SDS011;4958;48.150;11.506;2024-01-16T06:08:00;3.07;;;2.50;;
9838;SDS011;4958;48.150;11.506;2024-01-16T06:10:42;2.87;;;2.20;;
9838;SDS011;4958;48.150;11.506;2024-01-16T06:13:33;3.37;;;2.23;;
9838;SDS011;4958;48.150;11.506;2024-01-16T06:15:59;2.80;;;2.00;;
9838;SDS011;4958;48.150;11.506;2024-01-16T06:18:28;3.10;;;2.27;;
9838;SDS011;4958;48.150;11.506;2024-01-16T06:21:02;4.37;;;2.30;;
9838;SDS011;4958;48.150;11.506;2024-01-16T06:23:54;2.40;;;2.20;;
9838;SDS011;4958;48.150;11.506;2024-01-16T06:26:24;3.10;;;2.20;;
9838;SDS011;4958;48.150;11.506;2024-01-16T06:28:51;2.53;;;1.93;;
9838;SDS011;4958;48.150;11.506;2024-01-16T06:31:17;2.87;;;2.20;;
9838;SDS011;4958;48.150;11.506;2024-01-16T06:33:44;2.33;;;2.10;;
9838;SDS011;4958;48.150;11.506;2024-01-16T06:36:10;4.40;;;1.97;;
9838;SDS011;4958;48.150;11.506;2024-01-16T06:39:01;3.63;;;2.27;;
9838;SDS011;4958;48.150;11.506;2024-01-16T06:41:31;2.87;;;2.10;;
9838;SDS011;4958;48.150;11.506;2024-01-16T06:43:58;3.43;;;2.33;;
9838;SDS011;4958;48.150;11.506;2024-01-16T06:46:24;2.00;;;1.80;;
9838;SDS011;4958;48.150;11.506;2024-01-16T06:48:51;3.40;;;2.20;;
9838;SDS011;4958;48.150;11.506;2024-01-16T06:51:17;4.87;;;2.40;;
9838;SDS011;4958;48.150;11.506;2024-01-16T06:53:44;5.17;;;2.30;;
9838;SDS011;4958;48.150;11.506;2024-01-16T06:56:14;5.13;;;2.40;;
9838;SDS011;4958;48.150;11.506;2024-01-16T06:58:43;3.00;;;1.93;;
9838;SDS011;4958;48.150;11.506;2024-01-16T07:01:21;4.53;;;2.57;;
9838;SDS011;4958;48.150;11.506;2024-01-16T07:03:48;6.80;;;3.97;;
9838;SDS011;4958;48.150;11.506;2024-01-16T07:06:14;6.53;;;4.30;;
9838;SDS011;4958;48.150;11.506;2024-01-16T07:08:56;6.20;;;3.90;;
9838;SDS011;4958;48.150;11.506;2024-01-16T07:11:31;4.13;;;2.80;;
9838;SDS011;4958;48.150;11.506;2024-01-16T07:14:02;4.43;;;2.20;;
9838;SDS011;4958;48.150;11.506;2024-01-16T07:16:29;3.77;;;2.10;;
9838;SDS011;4958;48.150;11.506;2024-01-16T07:19:05;2.20;;;1.97;;
9838;SDS011;4958;48.150;11.506;2024-01-16T07:21:32;4.20;;;1.90;;
9838;SDS011;4958;48.150;11.506;2024-01-16T07:23:59;3.10;;;2.00;;
9838;SDS011;4958;48.150;11.506;2024-01-16T07:26:28;4.43;;;2.30;;
9838;SDS011;4958;48.150;11.506;2024-01-16T07:29:10;5.00;;;2.47;;
9838;SDS011;4958;48.150;11.506;2024-01-16T07:31:44;3.63;;;2.40;;
9838;SDS011;4958;48.150;11.506;2024-01-16T07:34:24;3.80;;;2.50;;
9838;SDS011;4958;48.150;11.506;2024-01-16T07:36:51;3.47;;;2.70;;
9838;SDS011;4958;48.150;11.506;2024-01-16T07:39:19;6.07;;;2.90;;
9838;SDS011;4958;48.150;11.506;2024-01-16T07:41:47;2.70;;;2.37;;
9838;SDS011;4958;48.150;11.506;2024-01-16T07:44:27;4.00;;;2.47;;
9838;SDS011;4958;48.150;11.506;2024-01-16T07:47:02;2.77;;;2.30;;
9838;SDS011;4958;48.150;11.506;2024-01-16T07:49:29;4.77;;;2.40;;
9838;SDS011;4958;48.150;11.506;2024-01-16T07:52:10;4.70;;;2.90;;
9838;SDS011;4958;48.150;11.506;2024-01-16T07:54:37;5.33;;;2.50;;
9838;SDS011;4958;48.150;11.506;2024-01-16T07:57:06;2.73;;;2.30;;
9838;SDS011;4958;48.150;11.506;2024-01-16T08:05:50;4.03;;;2.70;;
9838;SDS011;4958;48.150;11.506;2024-01-16T08:16:21;3.50;;;2.53;;
9838;SDS011;4958;48.150;11.506;2024-01-16T08:27:02;3.13;;;2.83;;
9838;SDS011;4958;48.150;11.506;2024-01-16T08:37:59;6.93;;;2.97;;
9838;SDS011;4958;48.150;11.506;2024-01-16T08:40:42;5.40;;;2.83;;
9838;SDS011;4958;48.150;11.506;2024-01-16T08:43:12;4.70;;;2.97;;
9838;SDS011;4958;48.150;11.506;2024-01-16T08:45:44;5.07;;;2.90;;
9838;SDS011;4958;48.150;11.506;2024-01-16T08:48:12;5.53;;;3.63;;
9838;SDS011;4958;48.150;11.506;2024-01-16T08:50:42;4.23;;;3.43;;
9838;SDS011;4958;48.150;11.506;2024-01-16T08:53:09;5.33;;;3.30;;
9838;SDS011;4958;48.150;11.506;2024-01-16T08:55:45;4.93;;;3.37;;
9838;SDS011;4958;48.150;11.506;2024-01-16T08:58:12;3.63;;;3.17;;
9838;SDS011;4958;48.150;11.506;2024-01-16T09:00:49;4.87;;;3.00;;
9838;SDS011;4958;48.150;11.506;2024-01-16T09:03:34;5.33;;;3.40;;
9838;SDS011;4958;48.150;11.506;2024-01-16T09:06:07;3.67;;;3.00;;
9838;SDS011;4958;48.150;11.506;2024-01-16T09:14:01;3.43;;;2.90;;
9838;SDS011;4958;48.150;11.506;2024-01-16T09:16:28;6.57;;;3.20;;
9838;SDS011;4958;48.150;11.506;2024-01-16T09:18:55;4.43;;;2.97;;
9838;SDS011;4958;48.150;11.506;2024-01-16T09:21:39;4.97;;;2.90;;
9838;SDS011;4958;48.150;11.506;2024-01-16T09:24:12;3.57;;;2.87;;
9838;SDS011;4958;48.150;11.506;2024-01-16T09:26:44;4.60;;;3.07;;
9838;SDS011;4958;48.150;11.506;2024-01-16T09:29:19;3.90;;;2.70;;
9838;SDS011;4958;48.150;11.506;2024-01-16T09:31:52;4.20;;;3.10;;
9838;SDS011;4958;48.150;11.506;2024-01-16T09:34:25;4.93;;;3.40;;
9838;SDS011;4958;48.150;11.506;2024-01-16T09:37:00;4.50;;;3.17;;
9838;SDS011;4958;48.150;11.506;2024-01-16T09:39:38;4.47;;;3.17;;
9838;SDS011;4958;48.150;11.506;2024-01-16T09:42:10;4.43;;;3.13;;
9838;SDS011;4958;48.150;11.506;2024-01-16T09:44:45;4.17;;;2.70;;
9838;SDS011;4958;48.150;11.506;2024-01-16T09:47:17;3.57;;;2.93;;
9838;SDS011;4958;48.150;11.506;2024-01-16T09:49:56;4.40;;;3.00;;
9838;SDS011;4958;48.150;11.506;2024-01-16T09:52:33;4.67;;;3.07;;
9838;SDS011;4958;48.150;11.506;2024-01-16T09:55:07;3.93;;;2.90;;
9838;SDS011;4958;48.150;11.506;2024-01-16T09:57:38;4.90;;;3.10;;
9838;SDS011;4958;48.150;11.506;2024-01-16T10:21:31;3.30;;;2.60;;
9838;SDS011;4958;48.150;11.506;2024-01-16T10:24:26;4.60;;;2.90;;
9838;SDS011;4958;48.150;11.506;2024-01-16T10:33:36;3.83;;;2.80;;
9838;SDS011;4958;48.150;11.506;2024-01-16T10:48:12;3.13;;;2.53;;
9838;SDS011;4958;48.150;11.506;2024-01-16T10:51:14;4.13;;;2.83;;
9838;SDS011;4958;48.150;11.506;2024-01-16T10:57:33;3.23;;;2.70;;
9838;SDS011;4958;48.150;11.506;2024-01-16T11:00:39;6.23;;;3.10;;
9838;SDS011;4958;48.150;11.506;2024-01-16T11:07:14;4.03;;;2.50;;
9838;SDS011;4958;48.150;11.506;2024-01-16T11:13:14;3.50;;;2.30;;
9838;SDS011;4958;48.150;11.506;2024-01-16T11:15:43;2.90;;;2.00;;
9838;SDS011;4958;48.150;11.506;2024-01-16T11:18:13;4.20;;;2.70;;
9838;SDS011;4958;48.150;11.506;2024-01-16T11:20:53;5.47;;;4.10;;
9838;SDS011;4958;48.150;11.506;2024-01-16T11:23:24;4.60;;;2.83;;
9838;SDS011;4958;48.150;11.506;2024-01-16T11:25:51;3.50;;;2.90;;
9838;SDS011;4958;48.150;11.506;2024-01-16T11:28:29;3.87;;;2.20;;
9838;SDS011;4958;48.150;11.506;2024-01-16T11:31:35;2.73;;;2.10;;
9838;SDS011;4958;48.150;11.506;2024-01-16T11:34:13;3.70;;;2.20;;
9838;SDS011;4958;48.150;11.506;2024-01-16T11:37:31;3.17;;;2.27;;
9838;SDS011;4958;48.150;11.506;2024-01-16T11:42:51;3.30;;;2.20;;
9838;SDS011;4958;48.150;11.506;2024-01-16T11:48:29;5.37;;;2.93;;
9838;SDS011;4958;48.150;11.506;2024-01-16T11:50:55;4.37;;;2.57;;
9838;SDS011;4958;48.150;11.506;2024-01-16T11:53:40;2.93;;;2.47;;
9838;SDS011;4958;48.150;11.506;2024-01-16T12:03:09;12.27;;;8.43;;
9838;SDS011;4958;48.150;11.506;2024-01-16T12:05:41;3.37;;;2.60;;
9838;SDS011;4958;48.150;11.506;2024-01-16T12:22:53;2.70;;;1.87;;
9838;SDS011;4958;48.150;11.506;2024-01-16T12:25:20;2.23;;;1.70;;
9838;SDS011;4958;48.150;11.506;2024-01-16T12:27:53;2.33;;;1.80;;
9838;SDS011;4958;48.150;11.506;2024-01-16T12:33:11;2.23;;;1.60;;
9838;SDS011;4958;48.150;11.506;2024-01-16T12:35:50;2.67;;;1.67;;
9838;SDS011;4958;48.150;11.506;2024-01-16T12:38:37;2.23;;;1.60;;
9838;SDS011;4958;48.150;11.506;2024-01-16T12:56:18;3.30;;;2.00;;
9838;SDS011;4958;48.150;11.506;2024-01-16T12:58:45;2.87;;;1.73;;
9838;SDS011;4958;48.150;11.506;2024-01-16T13:04:03;5.23;;;3.60;;
9838;SDS011;4958;48.150;11.506;2024-01-16T13:06:33;3.07;;;1.93;;
9838;SDS011;4958;48.150;11.506;2024-01-16T13:09:09;2.40;;;1.60;;
9838;SDS011;4958;48.150;11.506;2024-01-16T13:11:47;2.53;;;1.50;;
9838;SDS011;4958;48.150;11.506;2024-01-16T13:14:20;3.20;;;2.10;;
9838;SDS011;4958;48.150;11.506;2024-01-16T13:16:59;2.27;;;1.53;;
9838;SDS011;4958;48.150;11.506;2024-01-16T13:19:32;2.73;;;2.40;;
9838;SDS011;4958;48.150;11.506;2024-01-16T13:22:08;2.93;;;2.20;;
9838;SDS011;4958;48.150;11.506;2024-01-16T13:24:43;4.23;;;2.00;;
9838;SDS011;4958;48.150;11.506;2024-01-16T13:27:11;2.83;;;1.77;;
9838;SDS011;4958;48.150;11.506;2024-01-16T13:29:38;2.20;;;1.70;;
9838;SDS011;4958;48.150;11.506;2024-01-16T13:32:07;1.90;;;1.70;;
9838;SDS011;4958;48.150;11.506;2024-01-16T13:34:33;2.80;;;1.90;;
9838;SDS011;4958;48.150;11.506;2024-01-16T13:37:18;2.43;;;1.60;;
9838;SDS011;4958;48.150;11.506;2024-01-16T13:39:48;3.40;;;1.90;;
9838;SDS011;4958;48.150;11.506;2024-01-16T13:42:18;5.37;;;1.93;;
9838;SDS011;4958;48.150;11.506;2024-01-16T13:44:58;4.77;;;1.63;;
9838;SDS011;4958;48.150;11.506;2024-01-16T13:47:24;3.53;;;1.67;;
9838;SDS011;4958;48.150;11.506;2024-01-16T13:49:50;2.33;;;1.80;;
9838;SDS011;4958;48.150;11.506;2024-01-16T13:52:34;2.77;;;1.50;;
9838;SDS011;4958;48.150;11.506;2024-01-16T13:55:04;2.97;;;1.80;;
9838;SDS011;4958;48.150;11.506;2024-01-16T13:57:32;2.17;;;1.80;;
9838;SDS011;4958;48.150;11.506;2024-01-16T14:00:14;10.43;;;6.43;;
9838;SDS011;4958;48.150;11.506;2024-01-16T14:02:42;11.97;;;8.70;;
9838;SDS011;4958;48.150;11.506;2024-01-16T14:05:10;3.23;;;2.10;;
9838;SDS011;4958;48.150;11.506;2024-01-16T14:07:40;3.50;;;1.93;;
9838;SDS011;4958;48.150;11.506;2024-01-16T14:10:22;5.87;;;2.17;;
9838;SDS011;4958;48.150;11.506;2024-01-16T14:12:51;3.73;;;2.10;;
9838;SDS011;4958;48.150;11.506;2024-01-16T14:15:39;2.37;;;2.10;;
9838;SDS011;4958;48.150;11.506;2024-01-16T14:18:13;4.43;;;2.00;;
9838;SDS011;4958;48.150;11.506;2024-01-16T14:20:51;2.80;;;1.90;;
9838;SDS011;4958;48.150;11.506;2024-01-16T14:23:18;4.37;;;2.10;;
9838;SDS011;4958;48.150;11.506;2024-01-16T14:25:45;2.30;;;2.10;;
9838;SDS011;4958;48.150;11.506;2024-01-16T14:31:04;3.27;;;2.13;;
9838;SDS011;4958;48.150;11.506;2024-01-16T14:33:30;2.13;;;1.93;;
9838;SDS011;4958;48.150;11.506;2024-01-16T14:35:57;3.07;;;2.77;;
9838;SDS011;4958;48.150;11.506;2024-01-16T14:38:27;5.70;;;3.07;;
9838;SDS011;4958;48.150;11.506;2024-01-16T14:41:03;3.73;;;3.17;;
9838;SDS011;4958;48.150;11.506;2024-01-16T14:43:35;5.23;;;3.77;;
9838;SDS011;4958;48.150;11.506;2024-01-16T14:46:03;4.43;;;3.53;;
9838;SDS011;4958;48.150;11.506;2024-01-16T14:48:44;5.87;;;4.33;;
9838;SDS011;4958;48.150;11.506;2024-01-16T14:51:11;6.17;;;3.77;;
9838;SDS011;4958;48.150;11.506;2024-01-16T14:53:37;6.47;;;4.50;;
9838;SDS011;4958;48.150;11.506;2024-01-16T14:56:04;5.47;;;3.77;;
9838;SDS011;4958;48.150;11.506;2024-01-16T15:01:16;26.03;;;16.97;;
9838;SDS011;4958;48.150;11.506;2024-01-16T15:03:44;10.27;;;7.73;;
9838;SDS011;4958;48.150;11.506;2024-01-16T15:09:31;11.40;;;5.63;;
9838;SDS011;4958;48.150;11.506;2024-01-16T15:12:32;15.03;;;9.43;;
9838;SDS011;4958;48.150;11.506;2024-01-16T15:14:53;8.90;;;5.90;;
9838;SDS011;4958;48.150;11.506;2024-01-16T15:17:20;9.47;;;5.23;;
9838;SDS011;4958;48.150;11.506;2024-01-16T15:19:47;7.80;;;4.23;;
9838;SDS011;4958;48.150;11.506;2024-01-16T15:22:13;8.97;;;4.30;;
9838;SDS011;4958;48.150;11.506;2024-01-16T15:24:40;9.80;;;4.43;;
9838;SDS011;4958;48.150;11.506;2024-01-16T15:27:20;6.70;;;3.90;;
9838;SDS011;4958;48.150;11.506;2024-01-16T15:29:47;7.63;;;3.87;;
9838;SDS011;4958;48.150;11.506;2024-01-16T15:32:15;7.87;;;3.70;;
9838;SDS011;4958;48.150;11.506;2024-01-16T15:34:43;7.60;;;4.00;;
9838;SDS011;4958;48.150;11.506;2024-01-16T15:37:18;6.20;;;4.00;;
9838;SDS011;4958;48.150;11.506;2024-01-16T15:39:45;8.70;;;3.97;;
9838;SDS011;4958;48.150;11.506;2024-01-16T15:42:11;4.27;;;3.23;;
9838;SDS011;4958;48.150;11.506;2024-01-16T15:44:38;6.43;;;4.17;;
9838;SDS011;4958;48.150;11.506;2024-01-16T15:47:04;14.17;;;7.90;;
9838;SDS011;4958;48.150;11.506;2024-01-16T15:52:14;17.87;;;9.97;;
9838;SDS011;4958;48.150;11.506;2024-01-16T15:54:43;9.87;;;6.77;;
9838;SDS011;4958;48.150;11.506;2024-01-16T15:57:09;11.30;;;6.97;;
9838;SDS011;4958;48.150;11.506;2024-01-16T15:59:45;8.47;;;5.73;;
9838;SDS011;4958;48.150;11.506;2024-01-16T16:02:12;15.43;;;7.80;;
9838;SDS011;4958;48.150;11.506;2024-01-16T16:04:39;27.93;;;17.27;;
9838;SDS011;4958;48.150;11.506;2024-01-16T16:07:07;17.17;;;11.37;;
9838;SDS011;4958;48.150;11.506;2024-01-16T16:09:34;16.37;;;9.87;;
9838;SDS011;4958;48.150;11.506;2024-01-16T16:12:06;11.83;;;6.93;;
9838;SDS011;4958;48.150;11.506;2024-01-16T16:14:36;28.10;;;20.13;;
9838;SDS011;4958;48.150;11.506;2024-01-16T16:17:05;17.03;;;11.03;;
9838;SDS011;4958;48.150;11.506;2024-01-16T16:19:33;12.30;;;8.47;;
9838;SDS011;4958;48.150;11.506;2024-01-16T16:22:15;13.43;;;6.87;;
9838;SDS011;4958;48.150;11.506;2024-01-16T16:24:41;10.67;;;5.83;;
9838;SDS011;4958;48.150;11.506;2024-01-16T16:27:22;29.20;;;15.13;;
9838;SDS011;4958;48.150;11.506;2024-01-16T16:30:19;19.90;;;11.37;;
9838;SDS011;4958;48.150;11.506;2024-01-16T16:32:56;13.50;;;8.77;;
9838;SDS011;4958;48.150;11.506;2024-01-16T16:38:17;11.10;;;6.87;;
9838;SDS011;4958;48.150;11.506;2024-01-16T16:40:44;19.43;;;6.40;;
9838;SDS011;4958;48.150;11.506;2024-01-16T16:46:44;8.53;;;4.80;;
9838;SDS011;4958;48.150;11.506;2024-01-16T16:49:29;9.47;;;5.03;;
9838;SDS011;4958;48.150;11.506;2024-01-16T16:51:55;17.13;;;5.43;;
9838;SDS011;4958;48.150;11.506;2024-01-16T16:54:23;7.80;;;5.47;;
9838;SDS011;4958;48.150;11.506;2024-01-16T16:59:31;14.57;;;10.17;;
9838;SDS011;4958;48.150;11.506;2024-01-16T17:02:00;21.30;;;14.47;;
9838;SDS011;4958;48.150;11.506;2024-01-16T17:04:26;14.07;;;9.20;;
9838;SDS011;4958;48.150;11.506;2024-01-16T17:07:04;10.23;;;7.03;;
9838;SDS011;4958;48.150;11.506;2024-01-16T17:09:40;8.50;;;5.90;;
9838;SDS011;4958;48.150;11.506;2024-01-16T17:12:26;8.87;;;6.17;;
9838;SDS011;4958;48.150;11.506;2024-01-16T17:14:53;8.77;;;6.20;;
9838;SDS011;4958;48.150;11.506;2024-01-16T17:17:27;7.87;;;6.03;;
9838;SDS011;4958;48.150;11.506;2024-01-16T17:20:13;11.20;;;6.30;;
9838;SDS011;4958;48.150;11.506;2024-01-16T17:22:46;7.17;;;5.20;;
9838;SDS011;4958;48.150;11.506;2024-01-16T17:25:28;7.27;;;4.97;;
9838;SDS011;4958;48.150;11.506;2024-01-16T17:28:24;11.40;;;6.43;;
9838;SDS011;4958;48.150;11.506;2024-01-16T17:30:50;8.73;;;5.57;;
9838;SDS011;4958;48.150;11.506;2024-01-16T17:33:22;11.97;;;6.20;;
9838;SDS011;4958;48.150;11.506;2024-01-16T17:36:06;8.83;;;6.20;;
9838;SDS011;4958;48.150;11.506;2024-01-16T17:38:37;7.17;;;5.50;;
9838;SDS011;4958;48.150;11.506;2024-01-16T17:41:18;8.63;;;5.70;;
9838;SDS011;4958;48.150;11.506;2024-01-16T17:43:47;10.37;;;6.20;;
9838;SDS011;4958;48.150;11.506;2024-01-16T17:46:14;7.50;;;5.53;;
9838;SDS011;4958;48.150;11.506;2024-01-16T17:48:40;10.20;;;6.03;;
9838;SDS011;4958;48.150;11.506;2024-01-16T17:51:08;8.83;;;5.23;;
9838;SDS011;4958;48.150;11.506;2024-01-16T17:53:45;8.93;;;6.10;;
9838;SDS011;4958;48.150;11.506;2024-01-16T17:56:12;15.83;;;6.23;;
9838;SDS011;4958;48.150;11.506;2024-01-16T17:58:44;8.83;;;5.70;;
9838;SDS011;4958;48.150;11.506;2024-01-16T18:01:22;8.37;;;5.73;;
9838;SDS011;4958;48.150;11.506;2024-01-16T18:03:54;8.70;;;5.60;;
9838;SDS011;4958;48.150;11.506;2024-01-16T18:06:25;11.10;;;6.10;;
9838;SDS011;4958;48.150;11.506;2024-01-16T18:09:11;9.07;;;5.40;;
9838;SDS011;4958;48.150;11.506;2024-01-16T18:14:37;9.63;;;6.50;;
9838;SDS011;4958;48.150;11.506;2024-01-16T18:17:07;8.93;;;5.47;;
9838;SDS011;4958;48.150;11.506;2024-01-16T18:19:47;9.87;;;5.37;;
9838;SDS011;4958;48.150;11.506;2024-01-16T18:22:14;7.23;;;5.47;;
9838;SDS011;4958;48.150;11.506;2024-01-16T18:24:41;7.83;;;5.17;;
9838;SDS011;4958;48.150;11.506;2024-01-16T18:27:07;7.37;;;5.27;;
9838;SDS011;4958;48.150;11.506;2024-01-16T18:29:47;7.57;;;5.87;;
9838;SDS011;4958;48.150;11.506;2024-01-16T18:32:13;11.13;;;6.17;;
9838;SDS011;4958;48.150;11.506;2024-01-16T18:34:41;7.33;;;5.57;;
9838;SDS011;4958;48.150;11.506;2024-01-16T18:37:13;9.73;;;5.73;;
9838;SDS011;4958;48.150;11.506;2024-01-16T18:40:03;7.83;;;5.37;;
9838;SDS011;4958;48.150;11.506;2024-01-16T18:42:34;7.03;;;5.67;;
9838;SDS011;4958;48.150;11.506;2024-01-16T18:45:10;6.57;;;5.50;;
9838;SDS011;4958;48.150;11.506;2024-01-16T18:47:43;7.43;;;5.33;;
9838;SDS011;4958;48.150;11.506;2024-01-16T18:50:27;9.70;;;5.20;;
9838;SDS011;4958;48.150;11.506;2024-01-16T18:52:59;7.97;;;5.47;;
9838;SDS011;4958;48.150;11.506;2024-01-16T18:55:26;8.13;;;5.30;;
9838;SDS011;4958;48.150;11.506;2024-01-16T18:57:53;7.63;;;5.20;;